• Join FlightAware (Why Join?)
  • Login
  • US Flag 
11:07AM EDT


 

Airport Tracker/Info


-or-


 

Live Flight TrackerFlight Track Log ✈ SWA2490 ✈ 04-Jul-2014 ✈ KFLL - KMDW

Flight Track Log - Related Links

Times and Time Zones

All times are in EDT time to prevent confusion due to time zone crossing. See the SWA2490 flight status page for this flight to view local times or setup timezone preferences in your user account.

Time Position Orientation Groundspeed Altitude Reporting Facility
EDT Latitude Longitude Course Direction KTS MPH feet Rate Location/Type
10:41AM 26.0758 -80.1358 81° East 170 196 500  Level Miami Center
10:42AM 26.0794 -80.1106 81° East 184 212 1,400 1,740 Climbing Miami Center
10:42AM 26.0936 -80.0731 67° East 207 238 2,400 2,340 Climbing Miami Center
10:43AM 26.1044 -80.0450 67° East 247 284 3,800 2,400 Climbing Miami Center
10:43AM 26.1400 -80.0214 31° Northeast 268 308 4,900 2,220 Climbing Miami Center
10:44AM 26.1700 -80.0314 343° North 291 335 6,100 2,880 Climbing Miami Center
10:44AM 26.1947 -80.0733 303° West 282 325 7,900 2,220 Climbing Miami Center
10:45AM 26.2214 -80.1578 289° West 288 331 10,000 960 Climbing Miami Center
10:47AM 26.2669 -80.2725 294° West 349 402 10,000 300 Level Miami Center
10:48AM 26.2817 -80.3861 278° West 349 402 10,700 1,740 Climbing Miami Center
10:49AM 26.3131 -80.4886 289° West 364 419 13,600 2,640 Climbing Miami Center
10:50AM 26.3594 -80.6006 295° West 369 425 16,200 2,280 Climbing Miami Center
10:51AM 26.4064 -80.7083 296° West 386 444 18,400 1,980 Climbing Miami Center
10:52AM 26.4994 -80.7783 326° Northwest 400 460 20,400 1,920 Climbing Miami Center
10:53AM 26.6006 -80.8508 327° Northwest 413 475 22,400 1,740 Climbing Miami Center
10:54AM 26.7061 -80.9250 328° Northwest 427 491 24,100 1,500 Climbing Miami Center
10:55AM 26.8111 -81.0008 327° Northwest 441 507 25,600 1,260 Climbing Miami Center
10:56AM 26.9161 -81.0750 328° Northwest 447 514 26,800 1,200 Climbing Miami Center
10:57AM 27.0261 -81.1531 328° Northwest 464 534 28,100 1,260 Climbing Miami Center
10:58AM 27.1364 -81.2331 327° Northwest 470 541 29,400 1,380 Climbing Miami Center
10:59AM 27.2483 -81.3139 327° Northwest 475 547 31,000 1,620 Climbing Miami Center
11:00AM 27.3808 -81.4094 327° Northwest 474 545 32,800 1,620 Climbing Miami Center
11:01AM 27.4956 -81.4922 327° Northwest 469 540 34,400 1,320 Climbing Miami Center
11:02AM 27.5986 -81.5669 327° Northwest 460 529 35,600 720 Climbing Miami Center
11:03AM 27.7106 -81.6478 327° Northwest 457 526 36,000 180 Climbing Miami Center
11:04AM 27.8156 -81.7389 323° Northwest 457 526 36,000  Level Miami Center
11:05AM 27.9039 -81.8292 318° Northwest 457 526 36,000  Level Miami Center
11:06AM 27.9978 -81.9256 318° Northwest 457 526 36,000  Level Miami Center
11:07AM 28.0856 -82.0300 314° West 456 525 36,000  Level Miami Center
11:08AM 28.1783 -82.1258 318° Northwest 455 524 36,000  Level Miami Center
11:09AM 28.2942 -82.2364 320° Northwest 451 519 36,000  Level Miami Center
11:10AM 28.4014 -82.3242 324° Northwest 452 520 36,000  Level Miami Center
11:11AM 28.5028 -82.4075 324° Northwest 451 519 36,000  Level Miami Center
11:12AM 28.6128 -82.4681 334° Northwest 452 520 36,000  Level Miami Center
11:13AM 28.7250 -82.5339 333° Northwest 452 520 36,000  Level Miami Center
11:14AM 28.8369 -82.6003 333° Northwest 453 521 36,000  Level Miami Center
11:16AM 28.9742 -82.6814 333° Northwest 451 519 36,000  Level Jacksonville Center
11:17AM 29.0869 -82.7475 333° Northwest 456 525 36,000  Level Jacksonville Center
11:18AM 29.2017 -82.8142 333° Northwest 456 525 36,000  Level Jacksonville Center
11:19AM 29.3125 -82.8806 332° Northwest 456 525 36,000  Level Jacksonville Center
11:20AM 29.4272 -82.9475 333° Northwest 456 525 36,000  Level Jacksonville Center
11:21AM 29.5525 -83.0264 331° Northwest 461 531 36,000  Level Jacksonville Center
11:22AM 29.6692 -83.0839 337° Northwest 461 531 36,000  Level Jacksonville Center
11:23AM 29.7881 -83.1392 338° Northwest 468 539 36,000  Level Jacksonville Center
11:24AM 29.9069 -83.1922 339° North 456 525 36,000  Level Jacksonville Center
11:25AM 30.0258 -83.2478 338° Northwest 456 525 36,000  Level Jacksonville Center
11:26AM 30.1428 -83.3008 339° North 456 525 36,000  Level Jacksonville Center
11:27AM 30.2614 -83.3567 338° Northwest 456 525 36,000  Level Jacksonville Center
11:28AM 30.3803 -83.4150 337° Northwest 456 525 36,000  Level Jacksonville Center
11:29AM 30.4992 -83.4689 339° North 456 525 36,000  Level Jacksonville Center
11:30AM 30.6178 -83.5250 338° Northwest 456 525 36,000  Level Jacksonville Center
11:31AM 30.7367 -83.5814 338° Northwest 456 525 36,000  Level Jacksonville Center
11:32AM 30.8553 -83.6378 338° Northwest 456 525 36,000  Level Jacksonville Center
11:33AM 30.9489 -83.6822 338° Northwest 456 525 36,000  Level Jacksonville Center
11:34AM 31.0758 -83.7439 337° Northwest 456 525 36,000  Level Jacksonville Center
11:35AM 31.1944 -83.8033 337° Northwest 456 525 36,000  Level Jacksonville Center
11:37AM 31.4586 -83.9317 337° Northwest 461 531 36,000  Level Atlanta Center
11:38AM 31.5817 -83.9781 342° North 461 531 36,000  Level Atlanta Center
11:39AM 31.7133 -84.0047 350° North 461 531 36,000  Level Atlanta Center
11:40AM 31.8406 -84.0317 350° North 461 531 36,000  Level Atlanta Center
11:41AM 31.9700 -84.0608 349° North 468 539 36,000  Level Atlanta Center
11:42AM 32.0994 -84.0878 350° North 468 539 36,000  Level Atlanta Center
11:43AM 32.2286 -84.1150 350° North 468 539 36,000  Level Atlanta Center
11:44AM 32.3519 -84.1469 348° North 463 533 36,000  Level Atlanta Center
11:45AM 32.4792 -84.1742 350° North 463 533 36,000  Level Atlanta Center
11:46AM 32.6064 -84.2042 349° North 463 533 36,000  Level Atlanta Center
11:47AM 32.7336 -84.2314 350° North 463 533 36,000  Level Atlanta Center
11:48AM 32.8589 -84.2589 350° North 463 533 36,000  Level Atlanta Center
11:49AM 32.9861 -84.2914 348° North 463 533 36,000  Level Atlanta Center
11:50AM 33.1136 -84.3167 351° North 463 533 36,000  Level Atlanta Center
11:51AM 33.2408 -84.3467 349° North 468 539 36,000  Level Atlanta Center
11:52AM 33.3658 -84.3772 348° North 468 539 36,000  Level Atlanta Center
11:53AM 33.4931 -84.4050 350° North 468 539 36,000  Level Atlanta Center
11:54AM 33.6286 -84.4381 349° North 463 533 36,000  Level Atlanta Center
11:55AM 33.7558 -84.4686 349° North 465 535 36,000  Level Atlanta Center
11:56AM 33.8853 -84.4967 350° North 465 535 36,000  Level Atlanta Center
11:57AM 33.9978 -84.5275 347° North 465 535 36,000  Level Atlanta Center
11:58AM 34.1417 -84.5608 349° North 474 545 36,000  Level Atlanta Center
11:59AM 34.2667 -84.5917 348° North 474 545 36,000  Level Atlanta Center
12:00PM 34.3939 -84.6203 349° North 461 531 36,000  Level Atlanta Center
12:01PM 34.5169 -84.6514 348° North 461 531 36,000  Level Atlanta Center
12:02PM 34.6442 -84.6825 349° North 461 531 36,000  Level Atlanta Center
12:03PM 34.7525 -84.7111 348° North 453 521 36,000  Level Atlanta Center
12:04PM 34.8775 -84.7400 349° North 448 516 36,000  Level Atlanta Center
12:05PM 35.0025 -84.7742 347° North 453 521 36,000  Level Atlanta Center
12:06PM 35.1275 -84.8058 348° North 453 521 36,000  Level Atlanta Center
12:07PM 35.2547 -84.8375 349° North 458 527 36,000  Level Atlanta Center
12:08PM 35.3797 -84.8667 349° North 458 527 36,000  Level Atlanta Center
12:09PM 35.5044 -84.9011 347° North 458 527 36,000  Level Atlanta Center
12:10PM 35.6294 -84.9331 348° North 452 520 36,000  Level Atlanta Center
12:11PM 35.7669 -84.9678 348° North 452 520 36,000  Level Atlanta Center
12:12PM 35.9372 -85.0106 349° North 469 540 36,000  Level Indianapolis Center
12:13PM 36.0572 -85.0392 349° North 475 547 36,000  Level Indianapolis Center
12:14PM 36.2114 -85.0783 348° North 475 547 36,000  Level Indianapolis Center
12:15PM 36.3392 -85.1108 348° North 472 543 36,000  Level Indianapolis Center
12:16PM 36.4658 -85.1433 348° North 466 536 36,000  Level Indianapolis Center
12:17PM 36.5922 -85.1758 348° North 466 536 36,000  Level Indianapolis Center
12:18PM 36.7194 -85.2097 348° North 466 536 36,000  Level Indianapolis Center
12:19PM 36.8458 -85.2419 348° North 466 536 36,000 -420 Level Indianapolis Center
12:20PM 36.9728 -85.2744 348° North 465 535 35,200 -540 Descending Indianapolis Center
12:21PM 37.1097 -85.3131 347° North 457 526 35,000 -120 Descending Indianapolis Center
12:22PM 37.2328 -85.3447 348° North 453 521 35,000  Level Indianapolis Center
12:23PM 37.3564 -85.3758 349° North 453 521 35,000  Level Indianapolis Center
12:24PM 37.4792 -85.4092 348° North 452 520 35,000 -300 Level Indianapolis Center
12:25PM 37.6025 -85.4392 349° North 452 520 34,500 -540 Descending Indianapolis Center
12:26PM 37.7256 -85.4611 352° North 450 518 34,000 -300 Descending Indianapolis Center
12:27PM 37.8506 -85.4889 350° North 437 503 34,000  Level Indianapolis Center
12:28PM 37.9683 -85.5144 350° North 435 501 34,000  Level Indianapolis Center
12:29PM 38.0881 -85.5386 351° North 434 499 34,000  Level Indianapolis Center
12:30PM 38.2094 -85.5633 351° North 435 501 34,000  Level Indianapolis Center
12:32PM 38.3292 -85.5864 351° North 435 501 34,000  Level Indianapolis Center
12:33PM 38.4458 -85.6131 350° North 435 501 34,000  Level Indianapolis Center
12:34PM 38.5639 -85.6367 351° North 434 499 34,000  Level Indianapolis Center
12:35PM 38.6806 -85.6608 351° North 433 498 34,000 -60 Level Indianapolis Center
12:36PM 38.7972 -85.6858 351° North 432 497 33,900 -600 Descending Indianapolis Center
12:37PM 38.9131 -85.7097 351° North 427 491 32,800 -1,080 Descending Indianapolis Center
12:38PM 39.0231 -85.7328 351° North 411 473 31,800 -1,140 Descending Indianapolis Center
12:39PM 39.1525 -85.7597 351° North 398 458 30,600 -900 Descending Indianapolis Center
12:40PM 39.2583 -85.7828 350° North 391 450 30,000 -300 Descending Indianapolis Center
12:41PM 39.3675 -85.8072 350° North 393 452 30,000  Level Indianapolis Center
12:42PM 39.4783 -85.8297 351° North 400 460 30,000  Level Indianapolis Center
12:43PM 39.5875 -85.8525 351° North 400 460 30,000 -300 Level Indianapolis Center
12:44PM 39.6967 -85.8767 350° North 400 460 29,400 -1,380 Descending Indianapolis Center
12:45PM 39.8064 -85.8994 351° North 401 461 27,200 -2,400 Descending Indianapolis Center
12:46PM 39.9397 -85.9289 350° North 405 466 24,500 -1,620 Descending Indianapolis Center
12:47PM 40.0447 -85.9567 349° North 397 457 24,000 -300 Descending Indianapolis Center
12:48PM 40.1422 -86.0019 340° North 380 437 24,000  Level Chicago Center
12:49PM 40.2408 -86.0481 340° North 380 437 24,000 -480 Level Chicago Center
12:50PM 40.3369 -86.0936 340° North 371 427 23,100 -540 Descending Chicago Center
12:51PM 40.4289 -86.1361 341° North 355 409 23,000 -180 Descending Chicago Center
12:52PM 40.5231 -86.1811 340° North 358 412 22,800 -1,320 Descending Chicago Center
12:53PM 40.6350 -86.2353 340° North 359 413 20,300 -2,040 Descending Chicago Center
12:54PM 40.7153 -86.2728 341° North 341 392 18,600 -1,620 Descending Chicago Center
12:55PM 40.8000 -86.3142 340° North 328 377 17,000 -1,800 Descending Chicago Center
12:56PM 40.8831 -86.3536 340° North 321 369 14,900 -2,220 Descending Chicago Center
12:57PM 40.9817 -86.4000 340° North 317 365 12,500 -1,920 Descending Chicago Center
12:58PM 41.0558 -86.4519 332° Northwest 309 356 11,000 -720 Descending Chicago Center
12:59PM 41.0967 -86.5519 298° West 308 354 11,100 -300 Climbing Chicago Center
01:00PM 41.1486 -86.6414 308° West 308 354 10,400 -540 Descending Chicago Center
01:01PM 41.2186 -86.7375 314° West 311 358 10,100 -180 Descending Chicago Center
01:02PM 41.2772 -86.8211 313° West 312 359 10,100 -60 Level Chicago Center
01:03PM 41.3414 -86.9106 314° West 313 360 10,000 -420 Descending Chicago Center
01:04PM 41.3944 -86.9831 314° West 273 314 9,300 -1,080 Descending Chicago Center
01:05PM 41.4472 -87.0611 312° West 266 306 7,800 -1,380 Descending Chicago Center
01:06PM 41.4964 -87.1308 313° West 263 303 6,500 -840 Descending Chicago Center
01:07PM 41.5267 -87.2250 293° West 263 303 6,100 -240 Descending Chicago Center
01:08PM 41.5467 -87.3208 286° West 267 307 6,100 -480 Level Chicago Center
01:09PM 41.5661 -87.4169 285° West 268 308 5,200 -1,020 Descending Chicago Center
01:11PM 41.5875 -87.5200 286° West 268 308 4,100 -1,020 Descending Chicago Center
01:12PM 41.5864 -87.6183 269° West 264 304 3,100 -480 Descending Chicago Center
01:13PM 41.5817 -87.7161 266° West 240 276 3,100  Level Chicago Center
01:14PM 41.5858 -87.7972 274° West 221 254 3,100  Level Chicago Center
01:15PM 41.6192 -87.8669 303° West 220 253 3,100  Level Chicago Center
01:16PM 41.6686 -87.8808 348° North 187 215 3,100 -300 Level Chicago Center
01:17PM 41.7119 -87.8433 33° Northeast 175 201 2,500 -720 Descending Chicago Center
01:18PM 41.7444 -87.8019 44° Northeast 162 186 1,700 -840 Descending Chicago Center
01:19PM 41.7736 -87.7642 44° Northeast 141 162 800 -480 Descending Chicago Center
01:20PM 41.7986 -87.7342 42° Northeast 141 162 800  Level Chicago Center